This is the latest recevied weather packets stored in our database for station/object KO6HRZ. If no packets are shown the sender has not sent any weather packets the latest 10 day(s).
| Time | Temp. | Humidity | Pressure | Rain* | Wind** | Luminosity | Snow |
|---|---|---|---|---|---|---|---|
| 1788395124 | 26.67° C | 52% | 1013.9 hPa | 0 mm | - | 121 W/m² | - |
| 1788394520 | 26.67° C | 52% | 1013.9 hPa | 0 mm | - | 209 W/m² | - |
| 1788393915 | 26.67° C | 52% | 1013.8 hPa | 0 mm | - | 145 W/m² | - |
| 1788393314 | 26.67° C | 51% | 1014 hPa | 0 mm | - | 117 W/m² | - |
| 1788392709 | 26.11° C | 51% | 1014 hPa | 0 mm | - | 428 W/m² | - |
| 1788392108 | 27.78° C | 49% | 1014 hPa | 0 mm | - | 433 W/m² | - |
| 1788391508 | 27.22° C | 51% | 1014 hPa | 0 mm | - | 530 W/m² | - |
| 1788390903 | 26.67° C | 51% | 1014.3 hPa | 0 mm | - | 367 W/m² | - |
| 1788390297 | 26.67° C | 51% | 1014.2 hPa | 0 mm | - | 420 W/m² | - |
| 1788389698 | 26.67° C | 51% | 1014.1 hPa | 0 mm | - | 253 W/m² | - |
| 1788389096 | 26.67° C | 53% | 1014.3 hPa | 0 mm | - | 437 W/m² | - |
| 1788388494 | 26.11° C | 52% | 1014.6 hPa | 0 mm | - | 190 W/m² | - |
| 1788387892 | 27.22° C | 49% | 1014.5 hPa | 0 mm | - | 408 W/m² | - |
| 1788387291 | 27.78° C | 49% | 1014.6 hPa | 0 mm | - | 421 W/m² | - |
| 1788386687 | 27.78° C | 48% | 1014.7 hPa | 0 mm | - | 689 W/m² | - |
| 1788386084 | 27.78° C | 50% | 1014.9 hPa | 0 mm | - | 674 W/m² | - |
| 1788385478 | 28.33° C | 47% | 1014.9 hPa | 0 mm | - | 535 W/m² | - |
| 1788384875 | 26.67° C | 52% | 1014.9 hPa | 0 mm | - | 850 W/m² | - |
| 1788384269 | 26.11° C | 52% | 1015 hPa | 0 mm | - | 311 W/m² | - |
| 1788383667 | 26.67° C | 52% | 1015.1 hPa | 0 mm | - | 610 W/m² | - |
| 1788383062 | 26.11° C | 53% | 1015.1 hPa | 0 mm | - | 420 W/m² | - |
| 1788382461 | 26.67° C | 51% | 1015.2 hPa | 0 mm | - | 846 W/m² | - |
| 1788381856 | 27.22° C | 52% | 1015.2 hPa | 0 mm | - | 861 W/m² | - |
| 1788381253 | 26.67° C | 50% | 1015.3 hPa | 0 mm | - | 467 W/m² | - |
| 1788380649 | 26.67° C | 50% | 1015.5 hPa | 0 mm | - | 344 W/m² | - |
* Rain latest hour (hover to see other rain measurements)
** Current wind speed in m/s (hover to see current wind gust speed)